Centenary Airport


Codes: FVCN/
Name: Centenary Airport
City:
Country: Zimbabwe
Elevation: 4058 ft.

Photos at Centenary Airport


   Photos courtesy of SpottingLog. You can add your own sightings and photos by signing up for a free trial today.



No photos found.

Weather at Centenary Airport


Time (UTC)DescriptionTempratureWindCloud coverageVisibilityPressureHumidity
16-Jun-2024 03:00Clear Sky10°C2 mph, S1%10000m1022hPa87%
16-Jun-2024 06:00Few Clouds13°C4 mph, SE21%10000m1023hPa71%
16-Jun-2024 09:00Light Rain19°C9 mph, E87%10000m1022hPa58%
16-Jun-2024 12:00Light Rain20°C7 mph, E92%10000m1020hPa49%
16-Jun-2024 15:00Broken Clouds18°C4 mph, E78%10000m1019hPa54%
16-Jun-2024 18:00Broken Clouds12°C2 mph, N61%10000m1022hPa80%
16-Jun-2024 21:00Clear Sky11°C4 mph, SE0%10000m1023hPa88%
17-Jun-2024 00:00Clear Sky9°C4 mph, S0%10000m1023hPa90%
17-Jun-2024 03:00Few Clouds9°C4 mph, SE12%10000m1023hPa97%
17-Jun-2024 06:00Few Clouds13°C7 mph, SE24%10000m1024hPa84%
17-Jun-2024 09:00Few Clouds20°C7 mph, E15%10000m1023hPa44%
17-Jun-2024 12:00Clear Sky23°C7 mph, E9%10000m1019hPa31%
17-Jun-2024 15:00Clear Sky20°C4 mph, NE9%10000m1019hPa37%
17-Jun-2024 18:00Clear Sky12°C2 mph, N9%10000m1021hPa62%
17-Jun-2024 21:00Overcast Clouds11°C2 mph, E87%10000m1022hPa67%
18-Jun-2024 00:00Overcast Clouds9°C2 mph, S91%10000m1022hPa76%
18-Jun-2024 03:00Scattered Clouds8°C2 mph, S27%10000m1022hPa85%
18-Jun-2024 06:00Few Clouds13°C4 mph, SE16%10000m1023hPa63%
18-Jun-2024 09:00Clear Sky22°C4 mph, E2%10000m1021hPa34%
18-Jun-2024 12:00Clear Sky25°C4 mph, NE3%10000m1016hPa25%
18-Jun-2024 15:00Clear Sky21°C4 mph, NE3%10000m1016hPa31%
18-Jun-2024 18:00Clear Sky13°C2 mph, NW3%10000m1020hPa53%
18-Jun-2024 21:00Clear Sky13°C2 mph, SW0%10000m1020hPa58%
19-Jun-2024 00:00Clear Sky11°C2 mph, S0%10000m1020hPa62%
19-Jun-2024 03:00Clear Sky10°C2 mph, S0%10000m1020hPa64%
19-Jun-2024 06:00Clear Sky16°C2 mph, S0%10000m1021hPa45%
19-Jun-2024 09:00Clear Sky24°C4 mph, E0%10000m1019hPa27%
19-Jun-2024 12:00Clear Sky26°C4 mph, NE0%10000m1015hPa19%
19-Jun-2024 15:00Clear Sky22°C4 mph, NE1%10000m1015hPa25%
19-Jun-2024 18:00Clear Sky15°C2 mph, W0%10000m1019hPa42%
19-Jun-2024 21:00Clear Sky14°C2 mph, S0%10000m1020hPa45%
20-Jun-2024 00:00Clear Sky12°C4 mph, S0%10000m1020hPa50%
20-Jun-2024 03:00Clear Sky11°C4 mph, S0%10000m1021hPa54%
20-Jun-2024 06:00Clear Sky16°C4 mph, SE0%10000m1023hPa46%
20-Jun-2024 09:00Clear Sky24°C9 mph, E2%10000m1021hPa28%
20-Jun-2024 12:00Clear Sky26°C7 mph, E3%10000m1017hPa21%
20-Jun-2024 15:00Clear Sky22°C7 mph, E2%10000m1018hPa27%
20-Jun-2024 18:00Clear Sky15°C2 mph, NE1%10000m1021hPa49%
20-Jun-2024 21:00Clear Sky13°C4 mph, SE0%10000m1023hPa64%
21-Jun-2024 00:00Clear Sky11°C4 mph, SE0%10000m1022hPa68%